Time;durP1;ratioP1;P1;durP2;ratioP2;P2;SDS_P1;SDS_P2;PMS_P1;PMS_P2;Temp;Humidity;BMP_temperature;BMP_pressure;BME280_temperature;BME280_humidity;BME280_pressure;Samples;Min_cycle;Max_cycle;Signal;HPM_P1;HPM_P2
2021/06/24 00:00:38;;;;;;;2.67;1.50;;;16.40;88.10;;;;;;5037608;28;20021;-67
2021/06/24 00:03:05;;;;;;;3.33;1.50;;;16.30;88.30;;;;;;5034696;28;20507;-67
2021/06/24 00:05:31;;;;;;;4.07;1.52;;;16.30;88.50;;;;;;5035653;28;20025;-66
2021/06/24 00:07:56;;;;;;;3.90;1.65;;;16.30;88.50;;;;;;5033620;28;20029;-67
2021/06/24 00:10:22;;;;;;;3.33;1.30;;;16.30;88.60;;;;;;5033345;28;20018;-67
2021/06/24 00:12:47;;;;;;;1.48;1.00;;;16.20;88.60;;;;;;5032895;28;20017;-67
2021/06/24 00:15:14;;;;;;;5.80;1.75;;;16.30;88.70;;;;;;5032326;28;20056;-67
2021/06/24 00:17:39;;;;;;;3.25;1.77;;;16.20;88.80;;;;;;5034488;28;20029;-67
2021/06/24 00:20:06;;;;;;;3.45;1.60;;;16.20;88.90;;;;;;5034267;28;20125;-67
2021/06/24 00:22:32;;;;;;;4.53;1.77;;;16.20;89.10;;;;;;5035617;28;20025;-67
2021/06/24 00:24:57;;;;;;;4.75;2.00;;;16.10;89.30;;;;;;5033373;28;20354;-67
2021/06/24 00:27:23;;;;;;;2.67;1.70;;;16.10;89.60;;;;;;5031964;28;20021;-67
2021/06/24 00:29:48;;;;;;;2.58;1.80;;;16.10;89.70;;;;;;5033041;28;20028;-67
2021/06/24 00:32:14;;;;;;;3.13;1.33;;;16.00;89.60;;;;;;5031047;28;20478;-67
2021/06/24 00:34:39;;;;;;;4.45;1.80;;;16.10;89.70;;;;;;5034210;28;20481;-67
2021/06/24 00:37:05;;;;;;;4.28;1.58;;;16.10;89.70;;;;;;5034337;28;20071;-66
2021/06/24 00:39:30;;;;;;;1.90;1.25;;;16.00;89.80;;;;;;5033938;28;20083;-67
2021/06/24 00:41:57;;;;;;;3.35;1.92;;;16.00;89.80;;;;;;5035981;28;20053;-67
2021/06/24 00:44:22;;;;;;;3.78;1.40;;;16.00;89.90;;;;;;5037174;28;20021;-67
2021/06/24 00:46:51;;;;;;;3.53;1.65;;;16.00;90.00;;;;;;5035495;28;20028;-67
2021/06/24 00:49:18;;;;;;;4.30;2.25;;;16.00;90.00;;;;;;5036238;28;20103;-67
2021/06/24 00:51:43;;;;;;;5.82;1.70;;;15.90;90.00;;;;;;5038327;28;20504;-67
2021/06/24 00:54:09;;;;;;;4.93;2.15;;;16.00;90.00;;;;;;5037724;28;20096;-67
2021/06/24 00:56:34;;;;;;;4.43;2.00;;;15.90;90.00;;;;;;5036126;28;20096;-67
2021/06/24 00:59:04;;;;;;;2.92;1.58;;;15.90;90.00;;;;;;5036039;28;20021;-67
2021/06/24 01:01:30;;;;;;;;;;;15.90;90.10;;;;;;5038545;28;20052;-67
2021/06/24 01:03:56;;;;;;;3.58;1.80;;;15.80;90.10;;;;;;5039903;28;19995;-67
2021/06/24 01:06:22;;;;;;;5.18;2.03;;;15.70;90.30;;;;;;5037200;28;20021;-67
2021/06/24 01:08:48;;;;;;;4.18;2.03;;;15.70;90.30;;;;;;5037923;28;20037;-67
2021/06/24 01:11:14;;;;;;;5.47;2.28;;;15.80;90.40;;;;;;5036184;28;20366;-67
2021/06/24 01:13:39;;;;;;;6.65;1.85;;;15.70;90.30;;;;;;5036055;28;20473;-67
2021/06/24 01:16:05;;;;;;;2.35;1.60;;;15.70;90.30;;;;;;5036719;28;20022;-67
2021/06/24 01:18:31;;;;;;;4.63;1.83;;;15.70;90.30;;;;;;5037781;28;20095;-67
2021/06/24 01:20:56;;;;;;;3.33;1.80;;;15.70;90.30;;;;;;5039571;28;20078;-67
2021/06/24 01:23:22;;;;;;;5.68;2.05;;;15.70;90.40;;;;;;5037128;28;20389;-67
2021/06/24 01:25:47;;;;;;;2.35;1.77;;;15.60;90.40;;;;;;5037284;28;20096;-67
2021/06/24 01:28:13;;;;;;;5.80;1.90;;;15.60;90.50;;;;;;5035985;28;20113;-67
2021/06/24 01:30:40;;;;;;;3.92;1.98;;;15.70;90.50;;;;;;5034452;28;20422;-67
2021/06/24 01:33:07;;;;;;;4.78;2.78;;;15.70;90.50;;;;;;5034580;28;20025;-67
2021/06/24 01:35:33;;;;;;;5.38;1.55;;;15.70;90.40;;;;;;5047615;28;20049;-67
2021/06/24 01:38:04;;;;;;;3.17;1.83;;;15.70;90.40;;;;;;5039241;28;20541;-67
2021/06/24 01:40:30;;;;;;;4.07;1.92;;;15.60;90.40;;;;;;5036313;28;20025;-67
2021/06/24 01:42:58;;;;;;;4.78;2.10;;;15.60;90.50;;;;;;5037534;28;20181;-67
2021/06/24 01:45:24;;;;;;;4.65;1.80;;;15.50;90.50;;;;;;5035759;28;20037;-67
2021/06/24 01:47:50;;;;;;;4.72;2.00;;;15.60;90.60;;;;;;5035537;28;20385;-67
2021/06/24 01:50:16;;;;;;;3.38;1.50;;;15.60;90.60;;;;;;5034935;28;20024;-66
2021/06/24 01:52:44;;;;;;;4.95;2.28;;;15.60;90.50;;;;;;5036697;28;20505;-67
2021/06/24 01:55:11;;;;;;;5.85;1.85;;;15.60;90.50;;;;;;5036073;28;20393;-67
2021/06/24 01:57:36;;;;;;;3.30;1.40;;;15.60;90.50;;;;;;5033520;28;20385;-67
2021/06/24 02:00:08;;;;;;;3.50;1.80;;;15.60;90.60;;;;;;5034775;28;20025;-67
2021/06/24 02:02:33;;;;;;;2.35;1.40;;;15.60;90.60;;;;;;5035615;28;20507;-67
2021/06/24 02:04:59;;;;;;;4.35;1.83;;;15.50;90.60;;;;;;5036629;28;20025;-67
2021/06/24 02:07:24;;;;;;;3.25;1.83;;;15.60;90.60;;;;;;5037431;28;20075;-67
2021/06/24 02:09:50;;;;;;;2.30;1.65;;;15.60;90.60;;;;;;5035472;28;20470;-67
2021/06/24 02:12:16;;;;;;;3.53;1.67;;;15.60;90.60;;;;;;5035940;28;20481;-67
2021/06/24 02:14:41;;;;;;;3.22;1.85;;;15.60;90.60;;;;;;5034689;28;20075;-67
2021/06/24 02:17:07;;;;;;;3.53;1.70;;;15.60;90.60;;;;;;5035780;28;20048;-67
2021/06/24 02:19:32;;;;;;;2.90;1.60;;;15.60;90.60;;;;;;5038876;28;20564;-67
2021/06/24 02:21:58;;;;;;;3.22;2.05;;;15.60;90.60;;;;;;5018356;28;20037;-67
2021/06/24 02:24:23;;;;;;;2.78;1.65;;;15.50;90.60;;;;;;5036264;28;20029;-67
2021/06/24 02:26:49;;;;;;;6.47;2.03;;;15.50;90.70;;;;;;5034923;28;20052;-67
2021/06/24 02:29:15;;;;;;;3.42;1.80;;;15.50;90.80;;;;;;5035714;28;20477;-67
2021/06/24 02:31:40;;;;;;;3.28;2.00;;;15.50;90.80;;;;;;5034462;28;20022;-67
2021/06/24 02:34:06;;;;;;;3.55;1.73;;;15.40;90.80;;;;;;5034160;28;20096;-67
2021/06/24 02:36:32;;;;;;;4.88;2.53;;;15.40;90.90;;;;;;5038479;28;20022;-67
2021/06/24 02:38:58;;;;;;;3.50;1.90;;;15.40;91.00;;;;;;5036009;28;20117;-67
2021/06/24 02:41:23;;;;;;;4.00;1.90;;;15.40;91.20;;;;;;5037199;28;20095;-67
2021/06/24 02:43:49;;;;;;;3.17;1.50;;;15.40;91.00;;;;;;5033573;28;20024;-67
2021/06/24 02:46:15;;;;;;;4.10;2.17;;;15.40;91.00;;;;;;5035273;28;20017;-67
2021/06/24 02:48:40;;;;;;;4.50;1.77;;;15.40;91.10;;;;;;5034310;28;20476;-67
2021/06/24 02:51:06;;;;;;;3.55;1.60;;;15.40;91.10;;;;;;5033750;28;20025;-66
2021/06/24 02:53:32;;;;;;;3.85;2.10;;;15.30;91.10;;;;;;5038341;28;20076;-66
2021/06/24 02:55:57;;;;;;;2.47;1.80;;;15.30;91.10;;;;;;5034268;28;20022;-66
2021/06/24 02:58:23;;;;;;;4.75;1.90;;;15.30;91.10;;;;;;5033782;28;20010;-67
2021/06/24 03:00:49;;;;;;;2.63;1.63;;;15.30;91.20;;;;;;5036109;28;20029;-66
2021/06/24 03:03:14;;;;;;;4.25;2.00;;;15.30;91.30;;;;;;5035298;28;20377;-67
2021/06/24 03:05:40;;;;;;;3.95;2.00;;;15.20;91.30;;;;;;5036917;28;20013;-67
2021/06/24 03:08:06;;;;;;;4.45;1.85;;;15.20;91.40;;;;;;5034904;28;20045;-66
2021/06/24 03:10:32;;;;;;;3.10;2.05;;;15.20;91.40;;;;;;5035484;28;20484;-66
2021/06/24 03:12:58;;;;;;;4.55;2.25;;;15.20;91.50;;;;;;5033925;28;20492;-67
2021/06/24 03:15:24;;;;;;;3.40;1.90;;;15.20;91.60;;;;;;5033719;28;20428;-67
2021/06/24 03:17:50;;;;;;;2.80;1.67;;;15.20;91.50;;;;;;5037206;28;20525;-66
2021/06/24 03:20:16;;;;;;;6.57;2.50;;;15.20;91.50;;;;;;5035292;28;20040;-67
2021/06/24 03:22:42;;;;;;;3.72;2.22;;;15.20;91.50;;;;;;5035646;28;20052;-67
2021/06/24 03:25:09;;;;;;;4.25;2.15;;;15.10;91.50;;;;;;5034539;28;20505;-67
2021/06/24 03:27:35;;;;;;;3.10;2.20;;;15.10;91.50;;;;;;5034993;28;20033;-66
2021/06/24 03:30:01;;;;;;;4.07;2.20;;;15.10;91.60;;;;;;5033698;28;20381;-66
2021/06/24 03:32:26;;;;;;;4.10;1.80;;;15.10;91.60;;;;;;5033447;28;20017;-66
2021/06/24 03:34:52;;;;;;;4.53;2.10;;;15.10;91.60;;;;;;5035213;28;20068;-67
2021/06/24 03:37:17;;;;;;;5.00;2.33;;;15.10;91.60;;;;;;5035218;28;20071;-67
2021/06/24 03:39:46;;;;;;;4.95;2.28;;;15.10;91.70;;;;;;5036639;28;20043;-67
2021/06/24 03:42:11;;;;;;;5.60;2.53;;;15.10;91.70;;;;;;5034278;28;20492;-67
2021/06/24 03:44:37;;;;;;;5.85;2.28;;;15.00;92.00;;;;;;5034813;28;20035;-66
2021/06/24 03:47:03;;;;;;;5.47;2.50;;;15.00;91.70;;;;;;5033271;28;20056;-67
2021/06/24 03:49:28;;;;;;;3.13;2.03;;;15.10;91.80;;;;;;5033078;28;20503;-67
2021/06/24 03:51:54;;;;;;;4.60;2.17;;;15.00;91.70;;;;;;5035296;28;20474;-67
2021/06/24 03:54:19;;;;;;;4.55;2.58;;;15.00;91.70;;;;;;5035221;28;20024;-66
2021/06/24 03:56:45;;;;;;;4.47;2.20;;;15.00;91.70;;;;;;5032025;28;20026;-67
2021/06/24 03:59:10;;;;;;;5.93;2.67;;;15.00;91.80;;;;;;5031680;28;20022;-67
2021/06/24 04:01:42;;;;;;;5.30;2.42;;;15.00;91.90;;;;;;5032407;28;20438;-67
2021/06/24 04:04:09;;;;;;;3.45;1.90;;;15.00;92.00;;;;;;5035687;28;20389;-66
2021/06/24 04:06:35;;;;;;;4.53;2.33;;;15.00;92.00;;;;;;5034191;28;20014;-67
2021/06/24 04:09:00;;;;;;;4.40;2.50;;;15.00;92.00;;;;;;5035345;28;20052;-66
2021/06/24 04:11:25;;;;;;;4.38;2.58;;;15.00;92.00;;;;;;5033452;28;20028;-66
2021/06/24 04:13:51;;;;;;;5.28;2.28;;;15.00;92.00;;;;;;5033373;28;20540;-67
2021/06/24 04:16:16;;;;;;;3.28;1.90;;;15.00;92.00;;;;;;5033793;28;20080;-67
2021/06/24 04:18:42;;;;;;;3.30;2.17;;;15.00;92.00;;;;;;5031971;28;20077;-67
2021/06/24 04:21:07;;;;;;;3.85;2.22;;;15.00;92.00;;;;;;5036814;28;20493;-67
2021/06/24 04:23:33;;;;;;;4.80;2.70;;;15.00;92.10;;;;;;5034034;28;20029;-67
2021/06/24 04:25:59;;;;;;;3.50;2.33;;;15.00;92.10;;;;;;5035128;28;20035;-67
2021/06/24 04:28:24;;;;;;;3.78;2.47;;;15.00;92.20;;;;;;5032017;28;20029;-67
2021/06/24 04:30:50;;;;;;;5.30;2.47;;;15.00;92.20;;;;;;5031868;28;20032;-66
2021/06/24 04:33:16;;;;;;;5.82;1.80;;;15.00;92.20;;;;;;5032293;28;20067;-67
2021/06/24 04:35:42;;;;;;;4.97;2.60;;;15.00;92.20;;;;;;5030776;28;20029;-67
2021/06/24 04:38:07;;;;;;;4.97;3.05;;;15.00;92.20;;;;;;5036568;28;20025;-67
2021/06/24 04:40:33;;;;;;;3.75;2.08;;;15.00;92.20;;;;;;5033845;28;20017;-67
2021/06/24 04:42:58;;;;;;;2.88;2.20;;;15.10;92.20;;;;;;5035099;28;20507;-66
2021/06/24 04:45:24;;;;;;;4.43;2.38;;;15.10;92.20;;;;;;5031749;28;20075;-67
2021/06/24 04:47:51;;;;;;;3.75;2.20;;;15.10;92.20;;;;;;5032868;28;20033;-66
2021/06/24 04:50:16;;;;;;;5.03;1.85;;;15.10;92.20;;;;;;5032380;28;20010;-67
2021/06/24 04:52:42;;;;;;;3.42;2.13;;;15.10;92.20;;;;;;5031964;28;20013;-67
2021/06/24 04:55:08;;;;;;;5.05;1.85;;;15.10;92.20;;;;;;5034938;28;20504;-67
2021/06/24 04:57:35;;;;;;;5.03;1.90;;;15.10;92.20;;;;;;5033561;28;20100;-66
2021/06/24 05:00:00;;;;;;;3.78;2.20;;;15.20;92.20;;;;;;5031843;28;20026;-67
2021/06/24 05:02:26;;;;;;;2.92;2.10;;;15.20;92.20;;;;;;5033756;28;20031;-66
2021/06/24 05:04:51;;;;;;;3.70;2.20;;;15.20;92.20;;;;;;5032969;28;20381;-67
2021/06/24 05:07:17;;;;;;;2.42;1.73;;;15.20;92.10;;;;;;5035361;28;20047;-66
2021/06/24 05:09:44;;;;;;;2.90;1.80;;;15.30;92.10;;;;;;5031994;28;20049;-66
2021/06/24 05:12:10;;;;;;;4.13;2.00;;;15.30;92.10;;;;;;5033613;28;20032;-67
2021/06/24 05:14:37;;;;;;;3.15;1.83;;;15.30;92.10;;;;;;5032443;28;20022;-66
2021/06/24 05:17:05;;;;;;;4.82;1.85;;;15.30;92.10;;;;;;5033196;28;20025;-66
2021/06/24 05:19:33;;;;;;;4.28;2.10;;;15.40;92.10;;;;;;5034009;28;20046;-67
2021/06/24 05:21:58;;;;;;;8.82;2.45;;;15.30;92.10;;;;;;5033973;28;20024;-67
2021/06/24 05:24:24;;;;;;;3.83;2.08;;;15.30;92.20;;;;;;5039684;28;20112;-66
2021/06/24 05:26:49;;;;;;;3.92;2.60;;;15.30;92.20;;;;;;5033506;28;20021;-66
2021/06/24 05:29:15;;;;;;;4.60;2.58;;;15.30;92.20;;;;;;5037280;28;20022;-67
2021/06/24 05:31:40;;;;;;;2.90;1.98;;;15.30;92.50;;;;;;5035550;28;20068;-67
2021/06/24 05:34:06;;;;;;;3.70;2.25;;;15.30;92.30;;;;;;5035526;28;20017;-66
2021/06/24 05:36:33;;;;;;;3.38;2.30;;;15.30;92.30;;;;;;5035314;28;20033;-66
2021/06/24 05:38:59;;;;;;;5.45;2.25;;;15.30;92.20;;;;;;5035005;28;20030;-67
2021/06/24 05:41:24;;;;;;;3.95;2.05;;;15.40;92.20;;;;;;5042013;28;20092;-67
2021/06/24 05:43:50;;;;;;;8.15;2.47;;;15.30;92.20;;;;;;5055609;28;20380;-66
2021/06/24 05:46:15;;;;;;;3.55;1.73;;;15.40;92.20;;;;;;5055084;28;20036;-67
2021/06/24 05:48:41;;;;;;;5.00;2.15;;;15.40;92.20;;;;;;5055386;28;20491;-67
2021/06/24 05:51:06;;;;;;;7.57;2.58;;;15.40;92.20;;;;;;5061608;28;20419;-66
2021/06/24 05:53:32;;;;;;;2.53;2.00;;;15.40;92.20;;;;;;5066762;28;20019;-66
2021/06/24 05:55:58;;;;;;;2.05;1.83;;;15.50;92.20;;;;;;5043485;28;20481;-67
2021/06/24 05:58:25;;;;;;;4.47;2.40;;;15.50;92.20;;;;;;5033736;28;20032;-66
2021/06/24 06:00:53;;;;;;;2.47;2.13;;;15.50;92.20;;;;;;5034916;28;20036;-66
2021/06/24 06:03:20;;;;;;;6.20;2.40;;;15.50;92.20;;;;;;5035335;28;20362;-67
2021/06/24 06:05:45;;;;;;;4.72;2.00;;;15.50;92.20;;;;;;5035241;28;20030;-67
2021/06/24 06:08:11;;;;;;;4.25;2.17;;;15.60;92.20;;;;;;5041355;28;20028;-67
2021/06/24 06:10:39;;;;;;;3.20;2.25;;;15.60;92.10;;;;;;5067205;28;20024;-66
2021/06/24 06:13:06;;;;;;;5.78;2.33;;;15.60;92.10;;;;;;5074394;28;20090;-67
2021/06/24 06:15:33;;;;;;;4.80;2.00;;;15.50;92.10;;;;;;5074583;28;20472;-67
2021/06/24 06:17:59;;;;;;;2.85;1.65;;;15.60;92.10;;;;;;5057956;28;20116;-66
2021/06/24 06:20:26;;;;;;;3.95;2.20;;;15.60;92.10;;;;;;5055026;28;20052;-66
2021/06/24 06:22:51;;;;;;;4.90;1.65;;;15.60;92.10;;;;;;5054765;28;20033;-67
2021/06/24 06:25:17;;;;;;;3.47;1.70;;;15.70;92.00;;;;;;5054833;28;20027;-67
2021/06/24 06:27:42;;;;;;;3.47;1.73;;;15.70;92.00;;;;;;5054491;28;20028;-67
2021/06/24 06:30:09;;;;;;;4.35;2.33;;;15.80;91.90;;;;;;5054603;28;20510;-66
2021/06/24 06:32:34;;;;;;;2.20;1.55;;;15.80;91.80;;;;;;5054444;28;20105;-67
2021/06/24 06:35:00;;;;;;;2.90;1.60;;;15.80;91.80;;;;;;5053489;28;20119;-66
2021/06/24 06:37:25;;;;;;;4.22;1.98;;;15.90;91.80;;;;;;5051908;28;20020;-66
2021/06/24 06:39:51;;;;;;;3.03;2.08;;;15.90;91.70;;;;;;5049099;28;20044;-66
2021/06/24 06:42:16;;;;;;;3.50;2.40;;;16.00;91.70;;;;;;5053527;28;20035;-66
2021/06/24 06:44:42;;;;;;;3.22;1.98;;;16.10;91.70;;;;;;5052444;28;20067;-66
2021/06/24 06:47:07;;;;;;;2.80;1.98;;;16.10;91.60;;;;;;5053598;28;20488;-66
2021/06/24 06:49:33;;;;;;;4.10;2.47;;;16.10;91.60;;;;;;5053776;28;20078;-66
2021/06/24 06:51:58;;;;;;;2.97;2.10;;;16.10;91.60;;;;;;5053121;28;20352;-66
2021/06/24 06:54:24;;;;;;;2.70;1.90;;;16.10;91.60;;;;;;5052910;28;20025;-67
2021/06/24 06:56:49;;;;;;;3.75;1.85;;;16.20;91.50;;;;;;5049944;28;20029;-66
2021/06/24 06:59:15;;;;;;;3.80;1.70;;;16.30;91.40;;;;;;5051409;28;20025;-66
2021/06/24 07:01:41;;;;;;;3.03;1.70;;;16.40;91.40;;;;;;5052765;28;20029;-66
2021/06/24 07:04:06;;;;;;;2.90;1.60;;;16.50;91.30;;;;;;5041151;28;20489;-66
2021/06/24 07:06:32;;;;;;;2.00;1.45;;;16.50;91.20;;;;;;5052851;28;20025;-67
2021/06/24 07:08:58;;;;;;;3.78;1.92;;;16.60;91.20;;;;;;5052983;28;20025;-66
2021/06/24 07:11:25;;;;;;;5.45;2.10;;;16.70;91.10;;;;;;5050129;28;20100;-66
2021/06/24 07:13:51;;;;;;;7.03;2.72;;;16.70;91.10;;;;;;5052849;28;20132;-66
2021/06/24 07:16:17;;;;;;;4.03;2.25;;;16.80;91.00;;;;;;5039038;28;20122;-66
2021/06/24 07:18:43;;;;;;;2.58;2.10;;;16.80;90.80;;;;;;5033197;28;20045;-66
2021/06/24 07:21:09;;;;;;;2.30;1.85;;;16.90;90.80;;;;;;5051482;28;20059;-66
2021/06/24 07:23:34;;;;;;;4.10;2.08;;;16.90;90.70;;;;;;5053439;28;20025;-66
2021/06/24 07:26:00;;;;;;;3.30;1.55;;;16.90;90.60;;;;;;5051835;28;20078;-66
2021/06/24 07:28:26;;;;;;;2.67;1.20;;;16.90;90.60;;;;;;5053188;28;20114;-66
2021/06/24 07:30:51;;;;;;;2.45;1.38;;;17.00;90.60;;;;;;5053408;28;20025;-66
2021/06/24 07:33:17;;;;;;;3.85;1.65;;;17.00;90.60;;;;;;5051631;28;20477;-67
2021/06/24 07:35:43;;;;;;;3.33;1.90;;;17.00;90.50;;;;;;5052952;28;20032;-67
2021/06/24 07:38:09;;;;;;;2.58;2.08;;;17.00;90.40;;;;;;5053022;28;20021;-66
2021/06/24 07:40:35;;;;;;;4.15;2.15;;;17.00;90.40;;;;;;5052733;28;20025;-67
2021/06/24 07:43:01;;;;;;;2.03;1.73;;;17.00;90.40;;;;;;5051462;28;20027;-67
2021/06/24 07:45:27;;;;;;;2.38;1.67;;;17.10;90.40;;;;;;5030490;28;20033;-66
2021/06/24 07:47:53;;;;;;;2.60;1.55;;;17.10;90.30;;;;;;5043753;28;20036;-67
2021/06/24 07:50:18;;;;;;;2.70;1.80;;;17.20;90.20;;;;;;5052638;28;20366;-67
2021/06/24 07:52:44;;;;;;;7.82;2.28;;;17.20;90.20;;;;;;5052869;28;20076;-67
2021/06/24 07:55:11;;;;;;;4.20;1.92;;;17.20;90.10;;;;;;5053078;28;20078;-67
2021/06/24 07:57:36;;;;;;;3.88;1.98;;;17.20;90.20;;;;;;5052836;28;20033;-67
2021/06/24 08:00:05;;;;;;;4.35;1.70;;;17.30;90.10;;;;;;5051851;28;20037;-67
2021/06/24 08:02:30;;;;;;;4.27;2.37;;;17.30;90.00;;;;;;5052998;28;20024;-67
2021/06/24 08:04:56;;;;;;;2.22;1.50;;;17.30;89.80;;;;;;5052634;28;20033;-67
2021/06/24 08:07:22;;;;;;;4.18;2.58;;;17.40;89.70;;;;;;5052756;28;20029;-67
2021/06/24 08:09:47;;;;;;;2.92;1.58;;;17.50;89.40;;;;;;5052769;28;20053;-67
2021/06/24 08:12:13;;;;;;;2.83;2.00;;;17.50;89.30;;;;;;5052924;28;20017;-67
2021/06/24 08:14:38;;;;;;;2.78;1.45;;;17.50;88.90;;;;;;5052715;28;20477;-67
2021/06/24 08:17:04;;;;;;;5.25;1.88;;;17.60;88.80;;;;;;5052581;28;20033;-67
2021/06/24 08:19:29;;;;;;;3.28;1.80;;;17.70;89.00;;;;;;5052518;28;20088;-67
2021/06/24 08:21:58;;;;;;;3.28;1.80;;;17.80;88.70;;;;;;5052750;28;20063;-67
2021/06/24 08:24:25;;;;;;;4.70;1.98;;;17.90;87.60;;;;;;5052883;28;20029;-67
2021/06/24 08:26:51;;;;;;;4.75;1.63;;;18.00;87.10;;;;;;5052537;28;20567;-67
2021/06/24 08:29:16;;;;;;;3.00;1.65;;;18.10;86.80;;;;;;5052717;28;20104;-66
2021/06/24 08:31:42;;;;;;;3.25;1.80;;;18.10;86.70;;;;;;5052654;28;20033;-66
2021/06/24 08:34:07;;;;;;;3.60;1.75;;;18.20;86.40;;;;;;5052594;28;20092;-67
2021/06/24 08:36:33;;;;;;;2.75;1.52;;;18.20;86.10;;;;;;5052589;28;20488;-67
2021/06/24 08:38:58;;;;;;;3.45;1.90;;;18.30;85.90;;;;;;5052428;28;20018;-67
2021/06/24 08:41:27;;;;;;;2.28;1.30;;;18.40;85.70;;;;;;5052576;28;20024;-68
2021/06/24 08:43:53;;;;;;;3.90;1.38;;;18.40;85.60;;;;;;5045266;28;20021;-67
2021/06/24 08:46:21;;;;;;;2.85;1.35;;;18.40;85.60;;;;;;5030222;28;20025;-67
2021/06/24 08:48:47;;;;;;;2.95;1.52;;;18.40;85.40;;;;;;5042123;28;20028;-67
2021/06/24 08:51:12;;;;;;;2.13;1.77;;;18.30;85.10;;;;;;5052411;28;20485;-67
2021/06/24 08:53:39;;;;;;;2.17;1.55;;;18.30;85.10;;;;;;5050943;28;20031;-67
2021/06/24 08:56:06;;;;;;;2.17;1.30;;;18.30;84.90;;;;;;5052432;28;20020;-68
2021/06/24 08:58:33;;;;;;;2.88;1.20;;;18.30;84.80;;;;;;5051042;28;20028;-68
2021/06/24 09:00:59;;;;;;;4.35;1.90;;;18.30;84.70;;;;;;5050624;28;20542;-68
2021/06/24 09:03:29;;;;;;;3.70;1.40;;;18.30;84.50;;;;;;5054906;28;20037;-67
2021/06/24 09:06:06;;;;;;;2.63;1.50;;;18.30;84.20;;;;;;5055759;28;20063;-67
2021/06/24 09:08:41;;;;;;;2.15;1.30;;;18.30;84.10;;;;;;5052767;28;20029;-68
2021/06/24 09:11:23;;;;;;;2.22;1.45;;;18.30;84.00;;;;;;5030182;28;20024;-67
2021/06/24 09:14:00;;;;;;;3.25;1.17;;;18.30;83.60;;;;;;5032037;28;20512;-67
2021/06/24 09:16:32;;;;;;;2.47;1.60;;;18.30;83.80;;;;;;5047537;28;20469;-67
2021/06/24 09:19:17;;;;;;;3.67;1.70;;;18.20;83.60;;;;;;5055340;28;20056;-67
2021/06/24 09:21:45;;;;;;;2.47;1.23;;;18.30;83.30;;;;;;5055235;28;20021;-68
2021/06/24 09:24:27;;;;;;;2.90;1.50;;;18.20;83.40;;;;;;5055358;28;20457;-67
2021/06/24 09:26:54;;;;;;;3.05;1.80;;;18.20;83.20;;;;;;5053930;28;20032;-67
2021/06/24 09:29:20;;;;;;;2.67;1.17;;;18.20;83.50;;;;;;5054501;28;20100;-67
2021/06/24 09:31:51;;;;;;;3.83;1.58;;;18.20;83.60;;;;;;5055163;28;20504;-68
2021/06/24 09:34:18;;;;;;;2.58;1.42;;;18.20;83.60;;;;;;5053228;28;20026;-67
2021/06/24 09:36:49;;;;;;;2.97;1.33;;;18.20;83.50;;;;;;5053563;28;20021;-67
2021/06/24 09:39:29;;;;;;;2.25;1.40;;;18.20;83.30;;;;;;5055365;28;20025;-67
2021/06/24 09:42:07;;;;;;;;;;;18.20;83.00;;;;;;5055808;28;20025;-67
2021/06/24 09:44:35;;;;;;;2.00;1.23;;;18.10;83.20;;;;;;5055504;28;20351;-67
2021/06/24 09:47:13;;;;;;;2.10;1.38;;;18.00;83.30;;;;;;5055140;28;20025;-67
2021/06/24 09:49:38;;;;;;;2.33;1.27;;;18.10;83.20;;;;;;5053887;28;20052;-67
2021/06/24 09:52:05;;;;;;;2.30;1.20;;;18.10;83.00;;;;;;5054258;28;20079;-67
2021/06/24 09:54:45;;;;;;;2.58;1.17;;;18.20;83.10;;;;;;5053771;28;20442;-67
2021/06/24 09:57:23;;;;;;;2.28;1.50;;;18.30;82.80;;;;;;5055320;28;20074;-67
2021/06/24 09:59:50;;;;;;;2.35;1.08;;;18.30;82.70;;;;;;5055296;28;20056;-67
2021/06/24 10:02:15;;;;;;;2.03;0.98;;;18.40;82.90;;;;;;5054550;28;20025;-67
2021/06/24 10:04:43;;;;;;;2.65;1.35;;;18.40;82.70;;;;;;5054779;28;20033;-67
2021/06/24 10:07:14;;;;;;;2.55;1.42;;;18.40;82.50;;;;;;5054861;28;20111;-67
2021/06/24 10:09:43;;;;;;;3.35;1.58;;;18.50;82.30;;;;;;5055083;28;20083;-67
2021/06/24 10:12:11;;;;;;;3.42;2.00;;;18.50;82.00;;;;;;5053778;28;20047;-67
2021/06/24 10:14:39;;;;;;;2.20;1.70;;;18.50;81.70;;;;;;5054679;28;20358;-67
2021/06/24 10:17:05;;;;;;;3.80;1.92;;;18.50;81.60;;;;;;5054488;28;20468;-67
2021/06/24 10:19:42;;;;;;;4.00;1.70;;;18.60;81.50;;;;;;5054649;28;20484;-67
2021/06/24 10:22:28;;;;;;;3.88;2.65;;;18.60;81.50;;;;;;5054768;28;20025;-67
2021/06/24 10:24:59;;;;;;;2.80;1.90;;;18.60;81.30;;;;;;5054679;28;20086;-67
2021/06/24 10:27:31;;;;;;;2.90;1.90;;;18.60;81.50;;;;;;5053188;28;20029;-67
2021/06/24 10:30:08;;;;;;;3.92;2.13;;;18.60;81.40;;;;;;5053412;28;20048;-67
2021/06/24 10:32:35;;;;;;;4.75;2.22;;;18.70;81.20;;;;;;5054686;28;20033;-67
2021/06/24 10:35:06;;;;;;;3.22;1.90;;;18.70;81.20;;;;;;5054418;28;20025;-67
2021/06/24 10:37:33;;;;;;;4.45;1.92;;;18.80;81.30;;;;;;5054300;28;20556;-67
2021/06/24 10:40:20;;;;;;;2.78;2.40;;;18.80;81.20;;;;;;5054337;28;20100;-67
2021/06/24 10:42:54;;;;;;;2.80;2.03;;;18.90;81.00;;;;;;5054015;28;20464;-67
2021/06/24 10:45:20;;;;;;;5.32;2.63;;;19.00;80.70;;;;;;5053973;28;20112;-67
2021/06/24 10:47:46;;;;;;;4.63;2.33;;;19.00;80.50;;;;;;5052935;28;20032;-67
2021/06/24 10:50:30;;;;;;;3.53;2.17;;;19.00;80.60;;;;;;5052913;28;20044;-67
2021/06/24 10:53:02;;;;;;;4.15;2.28;;;19.10;80.30;;;;;;5060660;28;20503;-67
2021/06/24 10:55:31;;;;;;;3.72;2.20;;;19.20;80.30;;;;;;5065144;28;20021;-67
2021/06/24 10:57:57;;;;;;;3.80;2.15;;;19.20;80.30;;;;;;5061512;28;20029;-67
2021/06/24 11:01:01;;;;;;;3.13;2.53;;;19.20;80.00;;;;;;5051045;28;20032;-67
2021/06/24 11:03:40;;;;;;;5.18;2.65;;;19.30;79.80;;;;;;5001038;28;20037;-67
2021/06/24 11:06:13;;;;;;;5.07;2.45;;;19.40;79.70;;;;;;5001381;28;20031;-67
2021/06/24 11:08:40;;;;;;;3.08;2.15;;;19.40;79.70;;;;;;5042023;28;20500;-67
2021/06/24 11:11:10;;;;;;;1.98;1.80;;;19.50;79.50;;;;;;5033581;28;20032;-67
2021/06/24 11:16:24;;;;;;;2.75;1.88;;;19.60;79.40;;;;;;5053781;28;20041;-68
2021/06/24 11:19:11;;;;;;;3.17;2.83;;;19.80;79.30;;;;;;5044087;28;20049;-67
2021/06/24 11:21:36;;;;;;;3.70;1.52;;;19.80;79.20;;;;;;5053586;28;20017;-67
2021/06/24 11:24:23;;;;;;;3.67;2.75;;;19.80;79.40;;;;;;5053031;28;20036;-67
2021/06/24 11:26:51;;;;;;;2.60;1.75;;;19.80;79.30;;;;;;5052817;28;20036;-68
2021/06/24 11:29:28;;;;;;;3.58;2.20;;;19.70;79.40;;;;;;5052208;28;20017;-67
2021/06/24 11:32:11;;;;;;;6.70;3.15;;;19.70;79.20;;;;;;5051777;28;20384;-67
2021/06/24 11:35:02;;;;;;;4.65;3.08;;;19.70;79.10;;;;;;5053429;28;20024;-67
2021/06/24 11:37:30;;;;;;;4.20;2.85;;;19.70;79.00;;;;;;5053235;28;20029;-67
2021/06/24 11:39:56;;;;;;;5.00;3.28;;;19.70;79.20;;;;;;5053328;28;20057;-67
2021/06/24 11:42:29;;;;;;;3.22;2.22;;;19.60;79.10;;;;;;5053136;28;20079;-67
2021/06/24 11:44:56;;;;;;;5.15;2.78;;;19.70;79.10;;;;;;5053271;28;20025;-67
2021/06/24 11:47:32;;;;;;;3.05;1.92;;;19.70;79.00;;;;;;5053091;28;20036;-67
2021/06/24 12:04:17;;;;;;;3.25;1.83;;;20.00;78.60;;;;;;5053272;28;20115;-67
2021/06/24 12:06:55;;;;;;;2.50;1.77;;;20.10;78.70;;;;;;5052702;28;20032;-67
2021/06/24 12:09:23;;;;;;;3.85;1.98;;;20.20;78.70;;;;;;5052837;28;20107;-67
2021/06/24 12:11:53;;;;;;;3.40;2.33;;;20.20;78.70;;;;;;5052869;28;20481;-67
2021/06/24 12:14:21;;;;;;;2.75;1.73;;;20.30;78.80;;;;;;5052933;28;20024;-67
2021/06/24 12:17:08;;;;;;;3.67;2.17;;;20.30;78.60;;;;;;5052535;28;20090;-67
2021/06/24 12:19:45;;;;;;;3.83;1.88;;;20.40;78.30;;;;;;5052620;28;20048;-67
2021/06/24 12:22:13;;;;;;;4.85;2.10;;;20.40;78.30;;;;;;5052827;28;20032;-67
2021/06/24 12:24:39;;;;;;;3.33;2.40;;;20.40;78.30;;;;;;5052076;28;20036;-67
2021/06/24 12:27:19;;;;;;;3.03;2.20;;;20.50;78.40;;;;;;5050901;28;20025;-67
2021/06/24 12:29:45;;;;;;;4.30;3.38;;;20.50;78.10;;;;;;5052193;28;20071;-67
2021/06/24 12:32:11;;;;;;;2.45;1.98;;;20.40;78.10;;;;;;5051261;28;20025;-67
2021/06/24 12:34:36;;;;;;;3.55;2.47;;;20.40;78.20;;;;;;5052511;28;20021;-67
2021/06/24 12:37:02;;;;;;;4.32;2.42;;;20.40;78.20;;;;;;5055326;28;20040;-67
2021/06/24 12:39:28;;;;;;;5.03;3.03;;;20.50;78.20;;;;;;5056370;28;20404;-67
2021/06/24 12:41:55;;;;;;;3.00;2.40;;;20.50;78.20;;;;;;5056458;28;20029;-67
2021/06/24 12:44:21;;;;;;;4.70;2.83;;;20.40;78.20;;;;;;5056237;28;20025;-68
2021/06/24 12:46:47;;;;;;;3.63;2.40;;;20.30;78.10;;;;;;5056336;28;20394;-67
2021/06/24 12:49:17;;;;;;;4.10;2.47;;;20.40;78.20;;;;;;5056401;28;20032;-67
2021/06/24 12:51:44;;;;;;;2.97;2.10;;;20.40;78.10;;;;;;5056499;28;20479;-67
2021/06/24 12:54:20;;;;;;;3.00;2.25;;;20.30;78.20;;;;;;5056367;28;20072;-67
2021/06/24 12:56:48;;;;;;;3.33;2.72;;;20.30;77.90;;;;;;5054639;28;20049;-67
2021/06/24 12:59:20;;;;;;;3.08;2.17;;;20.20;78.00;;;;;;5055858;28;20486;-67
2021/06/24 13:01:47;;;;;;;3.05;2.35;;;20.20;78.00;;;;;;5056231;28;20025;-67
2021/06/24 13:04:15;;;;;;;3.63;2.42;;;20.20;78.10;;;;;;5056286;28;20025;-67
2021/06/24 13:06:52;;;;;;;3.08;2.10;;;20.20;78.20;;;;;;5055992;28;20024;-67